createdAt,value
2018-06-15T00:00:42.870Z,0.00
2018-06-15T00:01:42.860Z,0.00
2018-06-15T00:02:42.862Z,0.00
2018-06-15T00:03:42.864Z,0.00
2018-06-15T00:04:43.071Z,0.00
2018-06-15T00:05:43.076Z,0.00
2018-06-15T00:06:42.877Z,0.00
2018-06-15T00:07:43.080Z,0.00
2018-06-15T00:08:42.890Z,0.00
2018-06-15T00:09:42.884Z,0.00
2018-06-15T00:10:42.889Z,0.00
2018-06-15T00:11:42.888Z,0.00
2018-06-15T00:12:42.891Z,0.00
2018-06-15T00:13:42.896Z,0.00
2018-06-15T00:14:43.111Z,0.00
2018-06-15T00:15:43.112Z,0.00
2018-06-15T00:16:42.906Z,0.00
2018-06-15T00:17:42.907Z,0.00
2018-06-15T00:18:42.908Z,0.00
2018-06-15T00:19:42.907Z,0.00
2018-06-15T00:20:43.115Z,0.00
2018-06-15T00:21:43.118Z,0.00
2018-06-15T00:22:42.927Z,0.00
2018-06-15T00:23:42.932Z,0.00
2018-06-15T00:24:42.924Z,0.00
2018-06-15T00:25:43.141Z,0.00
2018-06-15T00:26:42.928Z,0.00
2018-06-15T00:27:42.930Z,0.00
2018-06-15T00:28:43.134Z,0.00
2018-06-15T00:29:43.136Z,0.00
2018-06-15T00:30:42.935Z,0.00
2018-06-15T00:31:43.143Z,0.00
2018-06-15T00:32:42.942Z,0.00
2018-06-15T00:33:43.159Z,0.00
2018-06-15T00:34:43.152Z,0.00
2018-06-15T00:35:42.959Z,0.00
2018-06-15T00:36:42.954Z,0.00
2018-06-15T00:37:42.968Z,0.00
2018-06-15T00:38:42.967Z,0.00
2018-06-15T00:39:42.958Z,0.00
2018-06-15T00:40:43.172Z,0.00
2018-06-15T00:41:42.964Z,0.00
2018-06-15T00:42:42.966Z,0.00
2018-06-15T00:43:42.968Z,0.00
2018-06-15T00:44:42.980Z,0.00
2018-06-15T00:45:42.977Z,0.00
2018-06-15T00:46:43.189Z,0.00
2018-06-15T00:47:42.986Z,0.00
2018-06-15T00:48:43.181Z,0.00
2018-06-15T00:49:42.984Z,0.00
2018-06-15T00:50:42.993Z,0.00
2018-06-15T00:51:43.187Z,0.00
2018-06-15T00:52:42.988Z,0.00
2018-06-15T00:53:42.992Z,0.00
2018-06-15T00:54:42.991Z,0.00
2018-06-15T00:55:43.198Z,0.00
2018-06-15T00:56:42.996Z,0.00
2018-06-15T00:57:43.015Z,0.00
2018-06-15T00:58:43.001Z,0.00
2018-06-15T00:59:43.215Z,0.00
2018-06-15T01:00:43.005Z,0.00
2018-06-15T01:01:43.008Z,0.00
2018-06-15T01:02:43.021Z,0.00
2018-06-15T01:03:43.012Z,0.00
2018-06-15T01:04:43.019Z,0.00
2018-06-15T01:05:43.018Z,0.00
2018-06-15T01:06:43.021Z,0.00
2018-06-15T01:07:43.033Z,0.00
2018-06-15T01:08:43.034Z,0.00
2018-06-15T01:09:43.061Z,0.00
2018-06-15T01:10:43.027Z,0.00
2018-06-15T01:11:43.034Z,0.00
2018-06-15T01:12:43.034Z,0.00
2018-06-15T01:13:43.038Z,0.00
2018-06-15T01:14:43.243Z,0.00
2018-06-15T01:15:43.252Z,0.00
2018-06-15T01:16:43.246Z,0.00
2018-06-15T01:17:43.055Z,0.00
2018-06-15T01:18:43.060Z,0.00
2018-06-15T01:19:43.049Z,0.00
2018-06-15T01:20:43.145Z,0.00
2018-06-15T01:21:43.257Z,0.00
2018-06-15T01:22:43.058Z,0.00
2018-06-15T01:23:43.261Z,0.00
2018-06-15T01:24:43.063Z,0.00
2018-06-15T01:25:43.064Z,0.00
2018-06-15T01:26:43.064Z,0.00
2018-06-15T01:27:43.068Z,0.00
2018-06-15T01:28:43.275Z,0.00
2018-06-15T01:29:43.077Z,0.00
2018-06-15T01:30:43.280Z,0.00
2018-06-15T01:31:43.079Z,0.00
2018-06-15T01:32:43.081Z,0.00
2018-06-15T01:33:43.092Z,0.00
2018-06-15T01:34:43.085Z,0.00
2018-06-15T01:35:43.102Z,0.00
2018-06-15T01:36:43.102Z,0.00
2018-06-15T01:37:43.121Z,0.00
2018-06-15T01:38:43.098Z,0.00
2018-06-15T01:39:43.101Z,0.00
2018-06-15T01:40:43.315Z,0.00
2018-06-15T01:41:43.105Z,0.00
2018-06-15T01:42:43.106Z,0.00
2018-06-15T01:43:43.313Z,0.00
2018-06-15T01:44:43.109Z,0.00
2018-06-15T01:45:43.114Z,0.00
2018-06-15T01:46:43.116Z,0.00
2018-06-15T01:47:43.321Z,0.00
2018-06-15T01:48:43.132Z,0.00
2018-06-15T01:49:43.123Z,0.00
2018-06-15T01:50:43.339Z,0.00
2018-06-15T01:51:43.345Z,0.00
2018-06-15T01:52:43.338Z,0.00
2018-06-15T01:53:43.132Z,0.00
2018-06-15T01:54:43.350Z,0.00
2018-06-15T01:55:43.138Z,0.00
2018-06-15T01:56:43.155Z,0.00
2018-06-15T01:57:43.157Z,0.00
2018-06-15T01:58:43.359Z,0.00
2018-06-15T01:59:43.148Z,0.00
2018-06-15T02:00:43.165Z,0.00
2018-06-15T02:01:43.367Z,0.00
2018-06-15T02:02:43.156Z,0.00
2018-06-15T02:03:43.187Z,0.00
2018-06-15T02:04:43.362Z,0.00
2018-06-15T02:05:43.168Z,0.00
2018-06-15T02:06:43.178Z,0.00
2018-06-15T02:07:43.428Z,0.00
2018-06-15T02:08:43.173Z,0.00
2018-06-15T02:09:43.176Z,0.00
2018-06-15T02:10:43.179Z,0.00
2018-06-15T02:11:43.179Z,0.00
2018-06-15T02:12:43.182Z,0.00
2018-06-15T02:13:43.195Z,0.00
2018-06-15T02:14:43.187Z,0.00
2018-06-15T02:15:43.201Z,0.00
2018-06-15T02:16:43.192Z,0.00
2018-06-15T02:17:43.212Z,0.00
2018-06-15T02:18:43.197Z,0.00
2018-06-15T02:19:43.202Z,0.00
2018-06-15T02:20:43.214Z,0.00
2018-06-15T02:21:43.210Z,0.00
2018-06-15T02:22:43.409Z,0.00
2018-06-15T02:23:43.207Z,0.00
2018-06-15T02:24:43.226Z,0.00
2018-06-15T02:25:43.215Z,0.00
2018-06-15T02:26:43.225Z,0.00
2018-06-15T02:27:43.220Z,0.00
2018-06-15T02:28:43.232Z,0.00
2018-06-15T02:29:43.427Z,0.00
2018-06-15T02:30:43.428Z,0.00
2018-06-15T02:31:43.238Z,0.00
2018-06-15T02:32:43.249Z,0.00
2018-06-15T02:33:43.451Z,0.00
2018-06-15T02:34:43.238Z,0.00
2018-06-15T02:35:43.238Z,0.00
2018-06-15T02:36:43.242Z,0.00
2018-06-15T02:37:43.245Z,0.00
2018-06-15T02:38:43.256Z,0.00
2018-06-15T02:39:43.250Z,0.00
2018-06-15T02:40:43.266Z,0.00
2018-06-15T02:41:43.264Z,0.00
2018-06-15T02:42:43.269Z,0.00
2018-06-15T02:43:43.464Z,0.00
2018-06-15T02:44:43.263Z,0.00
2018-06-15T02:45:43.269Z,0.00
2018-06-15T02:46:43.469Z,0.00
2018-06-15T02:47:43.471Z,0.00
2018-06-15T02:48:43.281Z,0.00
2018-06-15T02:49:43.479Z,0.00
2018-06-15T02:50:43.277Z,0.00
2018-06-15T02:51:43.285Z,0.00
2018-06-15T02:52:43.482Z,0.00
2018-06-15T02:53:43.296Z,0.00
2018-06-15T02:54:43.286Z,0.00
2018-06-15T02:55:43.293Z,0.00
2018-06-15T02:56:43.293Z,0.00
2018-06-15T02:57:43.295Z,0.00
2018-06-15T02:58:43.296Z,0.00
2018-06-15T02:59:43.304Z,0.00
2018-06-15T03:00:43.302Z,0.00
2018-06-15T03:01:43.304Z,0.00
2018-06-15T03:02:43.318Z,0.00
2018-06-15T03:03:43.314Z,0.00
2018-06-15T03:04:43.515Z,0.00
2018-06-15T03:05:43.316Z,0.00
2018-06-15T03:06:43.316Z,0.00
2018-06-15T03:07:43.317Z,0.00
2018-06-15T03:08:43.527Z,0.00
2018-06-15T03:09:43.322Z,0.00
2018-06-15T03:10:43.337Z,0.00
2018-06-15T03:11:43.531Z,0.00
2018-06-15T03:12:43.331Z,0.00
2018-06-15T03:13:43.541Z,0.00
2018-06-15T03:14:43.336Z,0.00
2018-06-15T03:15:43.339Z,0.00
2018-06-15T03:16:43.343Z,0.00
2018-06-15T03:17:43.345Z,0.00
2018-06-15T03:18:43.344Z,0.00
2018-06-15T03:19:43.359Z,0.00
2018-06-15T03:20:43.353Z,0.00
2018-06-15T03:21:43.355Z,0.00
2018-06-15T03:22:43.356Z,0.00
2018-06-15T03:23:43.360Z,0.00
2018-06-15T03:24:43.361Z,0.00
2018-06-15T03:25:43.362Z,0.00
2018-06-15T03:26:43.370Z,0.00
2018-06-15T03:27:43.370Z,0.00
2018-06-15T03:28:43.370Z,0.00
2018-06-15T03:29:43.373Z,0.00
2018-06-15T03:30:43.386Z,0.00
2018-06-15T03:31:43.387Z,0.00
2018-06-15T03:32:43.380Z,0.00
2018-06-15T03:33:43.394Z,0.00
2018-06-15T03:34:43.389Z,0.00
2018-06-15T03:35:43.387Z,0.00
2018-06-15T03:36:43.392Z,0.00
2018-06-15T03:37:43.394Z,0.00
2018-06-15T03:38:43.397Z,0.00
2018-06-15T03:39:43.399Z,0.00
2018-06-15T03:40:43.402Z,0.00
2018-06-15T03:41:43.402Z,0.00
2018-06-15T03:42:43.403Z,0.00
2018-06-15T03:43:43.412Z,0.00
2018-06-15T03:44:43.440Z,0.00
2018-06-15T03:45:43.413Z,0.00
2018-06-15T03:46:43.426Z,0.00
2018-06-15T03:47:43.417Z,0.00
2018-06-15T03:48:43.421Z,0.00
2018-06-15T03:49:43.423Z,0.00
2018-06-15T03:50:43.428Z,0.00
2018-06-15T03:51:43.439Z,0.00
2018-06-15T03:52:43.631Z,0.00
2018-06-15T03:53:43.445Z,0.00
2018-06-15T03:54:43.435Z,0.00
2018-06-15T03:55:43.663Z,0.00
2018-06-15T03:56:43.444Z,0.00
2018-06-15T03:57:43.663Z,0.00
2018-06-15T03:58:43.454Z,0.00
2018-06-15T03:59:43.667Z,0.00
2018-06-15T04:00:43.455Z,0.00
2018-06-15T04:01:43.473Z,0.00
2018-06-15T04:02:43.659Z,0.00
2018-06-15T04:03:43.457Z,0.00
2018-06-15T04:04:43.474Z,0.00
2018-06-15T04:05:43.462Z,0.00
2018-06-15T04:06:43.465Z,0.00
2018-06-15T04:07:43.535Z,0.00
2018-06-15T04:08:43.690Z,0.00
2018-06-15T04:09:43.473Z,0.00
2018-06-15T04:10:43.476Z,0.00
2018-06-15T04:11:43.492Z,0.00
2018-06-15T04:12:43.682Z,0.00
2018-06-15T04:13:43.487Z,0.00
2018-06-15T04:14:43.687Z,0.00
2018-06-15T04:15:43.489Z,0.00
2018-06-15T04:16:43.489Z,0.00
2018-06-15T04:17:43.505Z,0.00
2018-06-15T04:18:43.496Z,0.00
2018-06-15T04:19:43.541Z,0.00
2018-06-15T04:20:43.525Z,0.00
2018-06-15T04:21:43.506Z,0.00
2018-06-15T04:22:43.506Z,0.00
2018-06-15T04:23:43.541Z,0.00
2018-06-15T04:24:43.513Z,0.00
2018-06-15T04:25:43.531Z,0.00
2018-06-15T04:26:43.513Z,0.00
2018-06-15T04:27:43.520Z,0.00
2018-06-15T04:28:43.521Z,0.00
2018-06-15T04:29:43.523Z,0.00
2018-06-15T04:30:43.524Z,0.00
2018-06-15T04:31:43.527Z,0.00
2018-06-15T04:32:43.535Z,0.00
2018-06-15T04:33:43.548Z,0.00
2018-06-15T04:34:43.562Z,0.00
2018-06-15T04:35:43.561Z,0.00
2018-06-15T04:36:43.551Z,0.00
2018-06-15T04:37:43.549Z,0.00
2018-06-15T04:38:43.567Z,0.00
2018-06-15T04:39:43.574Z,0.00
2018-06-15T04:40:43.567Z,0.00
2018-06-15T04:41:43.564Z,0.00
2018-06-15T04:42:43.559Z,0.00
2018-06-15T04:43:43.580Z,0.00
2018-06-15T04:44:43.574Z,0.00
2018-06-15T04:45:43.581Z,0.00
2018-06-15T04:46:43.570Z,0.00
2018-06-15T04:47:43.573Z,0.00
2018-06-15T04:48:43.583Z,0.00
2018-06-15T04:49:43.576Z,0.00
2018-06-15T04:50:43.576Z,0.00
2018-06-15T04:51:43.580Z,0.00
2018-06-15T04:52:43.592Z,0.00
2018-06-15T04:53:43.629Z,0.00
2018-06-15T04:54:43.620Z,0.00
2018-06-15T04:55:43.618Z,0.00
2018-06-15T04:56:43.592Z,0.00
2018-06-15T04:57:43.594Z,0.00
2018-06-15T04:58:43.609Z,0.00
2018-06-15T04:59:43.620Z,0.00
2018-06-15T05:00:43.622Z,5.63
2018-06-15T05:01:43.606Z,5.63
2018-06-15T05:02:43.656Z,5.63
2018-06-15T05:03:43.709Z,5.63
2018-06-15T05:04:43.619Z,5.63
2018-06-15T05:05:43.843Z,0.00
2018-06-15T05:06:43.647Z,0.00
2018-06-15T05:07:43.636Z,0.00
2018-06-15T05:08:43.642Z,0.00
2018-06-15T05:09:43.639Z,0.00
2018-06-15T05:10:43.643Z,0.00
2018-06-15T05:11:43.683Z,0.00
2018-06-15T05:12:43.703Z,0.00
2018-06-15T05:13:43.647Z,0.00
2018-06-15T05:14:43.647Z,0.00
2018-06-15T05:15:43.849Z,0.00
2018-06-15T05:16:43.662Z,0.00
2018-06-15T05:17:43.654Z,0.00
2018-06-15T05:18:43.655Z,0.00
2018-06-15T05:19:43.657Z,0.00
2018-06-15T05:20:43.661Z,0.00
2018-06-15T05:21:43.686Z,0.00
2018-06-15T05:22:43.690Z,0.00
2018-06-15T05:23:43.677Z,5.63
2018-06-15T05:24:43.872Z,5.63
2018-06-15T05:25:43.890Z,5.63
2018-06-15T05:26:43.677Z,5.63
2018-06-15T05:27:43.679Z,5.63
2018-06-15T05:28:43.680Z,5.63
2018-06-15T05:29:43.891Z,5.63
2018-06-15T05:30:43.696Z,5.63
2018-06-15T05:31:43.699Z,5.63
2018-06-15T05:32:43.708Z,5.63
2018-06-15T05:33:43.705Z,5.63
2018-06-15T05:34:43.725Z,5.63
2018-06-15T05:35:43.703Z,5.63
2018-06-15T05:36:43.702Z,5.63
2018-06-15T05:37:43.713Z,5.63
2018-06-15T05:38:43.710Z,5.63
2018-06-15T05:39:43.723Z,5.63
2018-06-15T05:40:43.915Z,5.63
2018-06-15T05:41:43.727Z,5.63
2018-06-15T05:42:43.768Z,5.63
2018-06-15T05:43:43.733Z,5.63
2018-06-15T05:44:43.739Z,5.63
2018-06-15T05:45:43.738Z,5.63
2018-06-15T05:46:43.739Z,5.63
2018-06-15T05:47:43.956Z,5.63
2018-06-15T05:48:43.747Z,5.63
2018-06-15T05:49:43.742Z,5.63
2018-06-15T05:50:43.741Z,5.63
2018-06-15T05:51:43.756Z,5.63
2018-06-15T05:52:43.759Z,5.63
2018-06-15T05:53:43.751Z,5.63
2018-06-15T05:54:43.953Z,5.63
2018-06-15T05:55:43.806Z,5.63
2018-06-15T05:56:43.781Z,5.63
2018-06-15T05:57:43.785Z,5.63
2018-06-15T05:58:43.991Z,5.63
2018-06-15T05:59:43.762Z,5.63
2018-06-15T06:00:43.773Z,5.63
2018-06-15T06:01:43.785Z,5.63
2018-06-15T06:02:43.778Z,5.63
2018-06-15T06:03:43.776Z,5.63
2018-06-15T06:04:43.788Z,5.63
2018-06-15T06:05:43.784Z,5.63
2018-06-15T06:06:43.797Z,5.63
2018-06-15T06:07:43.789Z,11.25
2018-06-15T06:08:43.789Z,11.25
2018-06-15T06:09:43.805Z,11.25
2018-06-15T06:10:44.009Z,11.25
2018-06-15T06:11:43.802Z,5.63
2018-06-15T06:12:43.814Z,11.25
2018-06-15T06:13:43.807Z,11.25
2018-06-15T06:14:43.807Z,11.25
2018-06-15T06:15:43.817Z,11.25
2018-06-15T06:16:43.816Z,11.25
2018-06-15T06:17:43.852Z,5.63
2018-06-15T06:18:43.830Z,5.63
2018-06-15T06:19:43.880Z,5.63
2018-06-15T06:20:43.830Z,5.63
2018-06-15T06:21:43.840Z,5.63
2018-06-15T06:22:43.847Z,5.63
2018-06-15T06:23:43.837Z,5.63
2018-06-15T06:24:43.838Z,5.63
2018-06-15T06:25:44.044Z,5.63
2018-06-15T06:26:43.890Z,5.63
2018-06-15T06:27:43.849Z,5.63
2018-06-15T06:28:43.862Z,5.63
2018-06-15T06:29:43.855Z,5.63
2018-06-15T06:30:43.879Z,5.63
2018-06-15T06:31:44.062Z,5.63
2018-06-15T06:32:43.890Z,5.63
2018-06-15T06:33:43.880Z,5.63
2018-06-15T06:34:43.897Z,5.63
2018-06-15T06:35:44.072Z,5.63
2018-06-15T06:36:44.095Z,5.63
2018-06-15T06:37:43.889Z,5.63
2018-06-15T06:38:43.894Z,5.63
2018-06-15T06:39:43.885Z,5.63
2018-06-15T06:40:43.903Z,5.63
2018-06-15T06:41:44.094Z,5.63
2018-06-15T06:42:43.896Z,5.63
2018-06-15T06:43:43.939Z,5.63
2018-06-15T06:44:43.912Z,5.63
2018-06-15T06:45:43.918Z,5.63
2018-06-15T06:46:43.927Z,5.63
2018-06-15T06:47:43.918Z,5.63
2018-06-15T06:48:43.913Z,5.63
2018-06-15T06:49:43.916Z,5.63
2018-06-15T06:50:43.946Z,5.63
2018-06-15T06:51:43.937Z,5.63
2018-06-15T06:52:43.935Z,5.63
2018-06-15T06:53:43.927Z,5.63
2018-06-15T06:54:43.931Z,5.63
2018-06-15T06:55:43.948Z,5.63
2018-06-15T06:56:43.938Z,5.63
2018-06-15T06:57:44.159Z,5.63
2018-06-15T06:58:43.971Z,11.25
2018-06-15T06:59:43.963Z,5.63
2018-06-15T07:00:43.948Z,5.63
2018-06-15T07:01:43.951Z,5.63
2018-06-15T07:02:43.963Z,5.63
2018-06-15T07:03:44.172Z,11.25
2018-06-15T07:04:43.961Z,11.25
2018-06-15T07:05:43.966Z,11.25
2018-06-15T07:06:43.982Z,11.25
2018-06-15T07:07:43.972Z,16.88
2018-06-15T07:08:43.989Z,11.25
2018-06-15T07:09:44.002Z,11.25
2018-06-15T07:10:43.988Z,16.88
2018-06-15T07:11:44.010Z,11.25
2018-06-15T07:12:43.986Z,11.25
2018-06-15T07:13:43.988Z,11.25
2018-06-15T07:14:43.989Z,11.25
2018-06-15T07:15:44.003Z,11.25
2018-06-15T07:16:44.010Z,11.25
2018-06-15T07:17:44.010Z,11.25
2018-06-15T07:18:44.005Z,11.25
2018-06-15T07:19:44.015Z,11.25
2018-06-15T07:20:44.010Z,11.25
2018-06-15T07:21:44.015Z,16.88
2018-06-15T07:22:44.237Z,16.88
2018-06-15T07:23:44.100Z,22.50
2018-06-15T07:24:44.232Z,16.88
2018-06-15T07:25:44.023Z,16.88
2018-06-15T07:26:44.026Z,16.88
2018-06-15T07:27:44.028Z,22.50
2018-06-15T07:28:44.045Z,22.50
2018-06-15T07:29:44.049Z,22.50
2018-06-15T07:30:44.050Z,22.50
2018-06-15T07:31:44.079Z,16.88
2018-06-15T07:32:44.042Z,22.50
2018-06-15T07:33:44.048Z,22.50
2018-06-15T07:34:44.058Z,22.50
2018-06-15T07:35:44.265Z,28.13
2018-06-15T07:36:44.083Z,22.50
2018-06-15T07:37:44.065Z,28.13
2018-06-15T07:38:44.275Z,28.13
2018-06-15T07:39:44.267Z,140.63
2018-06-15T07:40:44.067Z,140.63
2018-06-15T07:41:44.285Z,39.38
2018-06-15T07:42:44.086Z,33.75
2018-06-15T07:43:44.079Z,33.75
2018-06-15T07:44:44.082Z,33.75
2018-06-15T07:45:44.095Z,22.50
2018-06-15T07:46:44.308Z,22.50
2018-06-15T07:47:44.304Z,16.88
2018-06-15T07:48:44.306Z,33.75
2018-06-15T07:49:44.109Z,22.50
2018-06-15T07:50:44.100Z,22.50
2018-06-15T07:51:44.132Z,16.88
2018-06-15T07:52:44.123Z,16.88
2018-06-15T07:53:44.314Z,22.50
2018-06-15T07:54:44.134Z,33.75
2018-06-15T07:55:44.118Z,50.63
2018-06-15T07:56:44.119Z,73.13
2018-06-15T07:57:44.124Z,33.75
2018-06-15T07:58:44.125Z,28.13
2018-06-15T07:59:44.244Z,33.75
2018-06-15T08:00:44.162Z,33.75
2018-06-15T08:01:44.152Z,22.50
2018-06-15T08:02:44.141Z,16.88
2018-06-15T08:03:44.348Z,16.88
2018-06-15T08:04:44.159Z,16.88
2018-06-15T08:05:44.170Z,11.25
2018-06-15T08:06:44.357Z,16.88
2018-06-15T08:07:44.360Z,11.25
2018-06-15T08:08:44.162Z,11.25
2018-06-15T08:09:44.167Z,11.25
2018-06-15T08:10:44.185Z,16.88
2018-06-15T08:11:44.389Z,11.25
2018-06-15T08:12:44.400Z,16.88
2018-06-15T08:13:44.383Z,180.00
2018-06-15T08:14:44.183Z,73.13
2018-06-15T08:15:44.197Z,50.63
2018-06-15T08:16:44.395Z,28.13
2018-06-15T08:17:44.210Z,22.50
2018-06-15T08:18:44.425Z,22.50
2018-06-15T08:19:44.220Z,16.88
2018-06-15T08:20:44.222Z,28.13
2018-06-15T08:21:44.232Z,11.25
2018-06-15T08:22:44.224Z,11.25
2018-06-15T08:23:44.218Z,16.88
2018-06-15T08:24:44.233Z,28.13
2018-06-15T08:25:44.441Z,16.88
2018-06-15T08:26:44.256Z,22.50
2018-06-15T08:27:44.493Z,16.88
2018-06-15T08:28:44.462Z,16.88
2018-06-15T08:29:44.256Z,11.25
2018-06-15T08:30:44.246Z,11.25
2018-06-15T08:31:44.252Z,11.25
2018-06-15T08:32:44.472Z,11.25
2018-06-15T08:33:44.463Z,11.25
2018-06-15T08:34:44.282Z,11.25
2018-06-15T08:35:44.480Z,11.25
2018-06-15T08:36:44.472Z,11.25
2018-06-15T08:37:44.296Z,11.25
2018-06-15T08:38:44.275Z,11.25
2018-06-15T08:39:44.291Z,11.25
2018-06-15T08:40:44.284Z,11.25
2018-06-15T08:41:44.287Z,11.25
2018-06-15T08:42:44.493Z,11.25
2018-06-15T08:43:44.295Z,11.25
2018-06-15T08:44:44.309Z,11.25
2018-06-15T08:45:44.529Z,11.25
2018-06-15T08:46:44.324Z,11.25
2018-06-15T08:47:44.314Z,11.25
2018-06-15T08:48:44.528Z,11.25
2018-06-15T08:49:44.317Z,11.25
2018-06-15T08:50:44.321Z,11.25
2018-06-15T08:51:44.526Z,11.25
2018-06-15T08:52:44.395Z,11.25
2018-06-15T08:53:44.333Z,11.25
2018-06-15T08:54:44.346Z,22.50
2018-06-15T08:55:44.342Z,11.25
2018-06-15T08:56:44.357Z,11.25
2018-06-15T08:57:44.359Z,16.88
2018-06-15T08:58:44.362Z,16.88
2018-06-15T08:59:44.354Z,16.88
2018-06-15T09:00:44.363Z,16.88
2018-06-15T09:01:44.379Z,16.88
2018-06-15T09:02:44.365Z,16.88
2018-06-15T09:03:44.375Z,16.88
2018-06-15T09:04:44.375Z,16.88
2018-06-15T09:05:44.380Z,16.88
2018-06-15T09:06:44.594Z,16.88
2018-06-15T09:07:44.394Z,16.88
2018-06-15T09:08:44.393Z,16.88
2018-06-15T09:09:44.597Z,16.88
2018-06-15T09:10:44.396Z,16.88
2018-06-15T09:11:44.398Z,16.88
2018-06-15T09:12:44.404Z,16.88
2018-06-15T09:13:44.612Z,16.88
2018-06-15T09:14:44.623Z,16.88
2018-06-15T09:15:44.641Z,16.88
2018-06-15T09:16:44.430Z,16.88
2018-06-15T09:17:44.424Z,16.88
2018-06-15T09:18:44.429Z,16.88
2018-06-15T09:19:44.440Z,16.88
2018-06-15T09:20:44.434Z,16.88
2018-06-15T09:21:44.438Z,16.88
2018-06-15T09:22:44.440Z,16.88
2018-06-15T09:23:44.444Z,16.88
2018-06-15T09:24:44.452Z,11.25
2018-06-15T09:25:44.481Z,11.25
2018-06-15T09:26:44.473Z,5.63
2018-06-15T09:27:44.495Z,5.63
2018-06-15T09:28:44.480Z,5.63
2018-06-15T09:29:44.490Z,11.25
2018-06-15T09:30:44.732Z,5.63
2018-06-15T09:31:44.493Z,5.63
2018-06-15T09:32:44.582Z,5.63
2018-06-15T09:33:44.686Z,11.25
2018-06-15T09:34:44.690Z,16.88
2018-06-15T09:35:44.697Z,11.25
2018-06-15T09:36:44.496Z,16.88
2018-06-15T09:37:44.702Z,16.88
2018-06-15T09:38:44.514Z,16.88
2018-06-15T09:39:44.506Z,16.88
2018-06-15T09:40:44.713Z,16.88
2018-06-15T09:41:44.526Z,16.88
2018-06-15T09:42:44.531Z,16.88
2018-06-15T09:43:44.520Z,16.88
2018-06-15T09:44:44.524Z,16.88
2018-06-15T09:45:44.540Z,16.88
2018-06-15T09:46:44.543Z,16.88
2018-06-15T09:47:44.540Z,16.88
2018-06-15T09:48:44.542Z,16.88
2018-06-15T09:49:44.554Z,16.88
2018-06-15T09:50:44.547Z,16.88
2018-06-15T09:51:44.549Z,16.88
2018-06-15T09:52:44.760Z,16.88
2018-06-15T09:53:44.557Z,16.88
2018-06-15T09:54:44.563Z,16.88
2018-06-15T09:55:44.574Z,11.25
2018-06-15T09:56:44.771Z,16.88
2018-06-15T09:57:44.573Z,16.88
2018-06-15T09:58:44.624Z,16.88
2018-06-15T09:59:44.580Z,16.88
2018-06-15T10:00:44.584Z,16.88
2018-06-15T10:01:44.791Z,16.88
2018-06-15T10:02:44.793Z,11.25
2018-06-15T10:03:44.596Z,16.88
2018-06-15T10:04:44.803Z,16.88
2018-06-15T10:05:44.601Z,16.88
2018-06-15T10:06:44.606Z,11.25
2018-06-15T10:07:44.623Z,11.25
2018-06-15T10:08:44.611Z,11.25
2018-06-15T10:09:44.615Z,5.63
2018-06-15T10:10:44.618Z,5.63
2018-06-15T10:11:44.624Z,5.63
2018-06-15T10:12:44.628Z,16.88
2018-06-15T10:13:44.631Z,16.88
2018-06-15T10:14:44.847Z,16.88
2018-06-15T10:15:44.637Z,16.88
2018-06-15T10:16:44.707Z,16.88
2018-06-15T10:17:44.660Z,16.88
2018-06-15T10:18:44.649Z,16.88
2018-06-15T10:19:44.861Z,16.88
2018-06-15T10:20:44.667Z,5.63
2018-06-15T10:21:44.863Z,16.88
2018-06-15T10:22:44.661Z,16.88
2018-06-15T10:23:44.669Z,16.88
2018-06-15T10:24:44.670Z,16.88
2018-06-15T10:25:44.674Z,11.25
2018-06-15T10:26:44.891Z,11.25
2018-06-15T10:27:44.897Z,16.88
2018-06-15T10:28:44.696Z,16.88
2018-06-15T10:29:44.715Z,16.88
2018-06-15T10:30:44.706Z,16.88
2018-06-15T10:31:44.699Z,16.88
2018-06-15T10:32:44.726Z,16.88
2018-06-15T10:33:44.725Z,16.88
2018-06-15T10:34:44.718Z,16.88
2018-06-15T10:35:44.709Z,16.88
2018-06-15T10:36:44.715Z,16.88
2018-06-15T10:37:44.720Z,16.88
2018-06-15T10:38:44.732Z,16.88
2018-06-15T10:39:44.725Z,16.88
2018-06-15T10:40:44.730Z,16.88
2018-06-15T10:41:44.744Z,16.88
2018-06-15T10:42:44.750Z,16.88
2018-06-15T10:43:44.754Z,16.88
2018-06-15T10:44:44.951Z,16.88
2018-06-15T10:45:44.761Z,16.88
2018-06-15T10:46:44.767Z,16.88
2018-06-15T10:47:44.958Z,16.88
2018-06-15T10:48:44.760Z,16.88
2018-06-15T10:49:44.774Z,16.88
2018-06-15T10:50:44.778Z,16.88
2018-06-15T10:51:44.771Z,16.88
2018-06-15T10:52:44.779Z,16.88
2018-06-15T10:53:44.786Z,16.88
2018-06-15T10:54:44.785Z,16.88
2018-06-15T10:55:44.785Z,16.88
2018-06-15T10:56:44.803Z,16.88
2018-06-15T10:57:44.797Z,16.88
2018-06-15T10:58:45.000Z,16.88
2018-06-15T10:59:44.814Z,16.88
2018-06-15T11:00:44.808Z,16.88
2018-06-15T11:01:44.814Z,16.88
2018-06-15T11:02:44.814Z,16.88
2018-06-15T11:03:44.822Z,16.88
2018-06-15T11:04:44.847Z,16.88
2018-06-15T11:05:45.046Z,16.88
2018-06-15T11:06:44.828Z,16.88
2018-06-15T11:07:45.049Z,16.88
2018-06-15T11:08:44.854Z,16.88
2018-06-15T11:09:44.842Z,16.88
2018-06-15T11:10:44.845Z,16.88
2018-06-15T11:11:44.868Z,16.88
2018-06-15T11:12:44.863Z,16.88
2018-06-15T11:13:44.858Z,16.88
2018-06-15T11:14:44.865Z,16.88
2018-06-15T11:15:44.866Z,16.88
2018-06-15T11:16:44.869Z,16.88
2018-06-15T11:17:44.889Z,16.88
2018-06-15T11:18:44.889Z,16.88
2018-06-15T11:19:45.098Z,16.88
2018-06-15T11:20:45.088Z,16.88
2018-06-15T11:21:44.927Z,16.88
2018-06-15T11:22:44.893Z,16.88
2018-06-15T11:23:44.906Z,16.88
2018-06-15T11:24:44.903Z,16.88
2018-06-15T11:25:44.913Z,16.88
2018-06-15T11:26:45.121Z,16.88
2018-06-15T11:27:44.922Z,16.88
2018-06-15T11:28:44.915Z,11.25
2018-06-15T11:29:44.946Z,5.63
2018-06-15T11:30:44.932Z,11.25
2018-06-15T11:31:44.927Z,11.25
2018-06-15T11:32:44.930Z,11.25
2018-06-15T11:33:44.943Z,11.25
2018-06-15T11:34:44.959Z,11.25
2018-06-15T11:35:44.952Z,11.25
2018-06-15T11:36:44.959Z,11.25
2018-06-15T11:37:44.951Z,16.88
2018-06-15T11:38:44.964Z,16.88
2018-06-15T11:39:44.992Z,16.88
2018-06-15T11:40:45.176Z,16.88
2018-06-15T11:41:45.177Z,16.88
2018-06-15T11:42:44.983Z,11.25
2018-06-15T11:43:45.175Z,11.25
2018-06-15T11:44:44.976Z,11.25
2018-06-15T11:45:44.996Z,11.25
2018-06-15T11:46:45.197Z,11.25
2018-06-15T11:47:45.000Z,16.88
2018-06-15T11:48:45.006Z,11.25
2018-06-15T11:49:44.996Z,16.88
2018-06-15T11:50:45.009Z,16.88
2018-06-15T11:51:45.006Z,11.25
2018-06-15T11:52:45.029Z,16.88
2018-06-15T11:53:45.017Z,16.88
2018-06-15T11:54:45.027Z,16.88
2018-06-15T11:55:45.021Z,16.88
2018-06-15T11:56:45.027Z,11.25
2018-06-15T11:57:45.034Z,11.25
2018-06-15T11:58:45.060Z,11.25
2018-06-15T11:59:45.052Z,11.25
2018-06-15T12:00:45.064Z,11.25
2018-06-15T12:01:45.089Z,11.25
2018-06-15T12:02:45.048Z,11.25
2018-06-15T12:03:45.066Z,11.25
2018-06-15T12:04:45.267Z,11.25
2018-06-15T12:05:45.066Z,11.25
2018-06-15T12:06:45.075Z,11.25
2018-06-15T12:07:45.290Z,11.25
2018-06-15T12:08:45.073Z,11.25
2018-06-15T12:09:45.095Z,11.25
2018-06-15T12:10:45.079Z,11.25
2018-06-15T12:11:45.088Z,11.25
2018-06-15T12:12:45.093Z,16.88
2018-06-15T12:13:45.106Z,16.88
2018-06-15T12:14:45.124Z,11.25
2018-06-15T12:15:45.113Z,11.25
2018-06-15T12:16:45.107Z,11.25
2018-06-15T12:17:45.109Z,11.25
2018-06-15T12:18:45.113Z,11.25
2018-06-15T12:19:45.120Z,11.25
2018-06-15T12:20:45.123Z,11.25
2018-06-15T12:21:45.137Z,11.25
2018-06-15T12:22:45.145Z,11.25
2018-06-15T12:23:45.148Z,11.25
2018-06-15T12:24:45.139Z,11.25
2018-06-15T12:25:45.143Z,11.25
2018-06-15T12:26:45.160Z,11.25
2018-06-15T12:27:45.164Z,11.25
2018-06-15T12:28:45.157Z,5.63
2018-06-15T12:29:45.163Z,5.63
2018-06-15T12:30:45.162Z,5.63
2018-06-15T12:31:45.169Z,5.63
2018-06-15T12:32:45.205Z,11.25
2018-06-15T12:33:45.186Z,11.25
2018-06-15T12:34:45.179Z,16.88
2018-06-15T12:35:45.189Z,16.88
2018-06-15T12:36:45.213Z,16.88
2018-06-15T12:37:45.203Z,16.88
2018-06-15T12:38:45.210Z,11.25
2018-06-15T12:39:45.201Z,11.25
2018-06-15T12:40:45.221Z,11.25
2018-06-15T12:41:45.218Z,11.25
2018-06-15T12:42:45.225Z,11.25
2018-06-15T12:43:45.217Z,11.25
2018-06-15T12:44:45.222Z,11.25
2018-06-15T12:45:45.247Z,11.25
2018-06-15T12:46:45.232Z,11.25
2018-06-15T12:47:45.232Z,16.88
2018-06-15T12:48:45.262Z,16.88
2018-06-15T12:49:45.252Z,11.25
2018-06-15T12:50:45.256Z,16.88
2018-06-15T12:51:45.250Z,11.25
2018-06-15T12:52:45.471Z,11.25
2018-06-15T12:53:45.269Z,11.25
2018-06-15T12:54:45.276Z,11.25
2018-06-15T12:55:45.282Z,11.25
2018-06-15T12:56:45.280Z,16.88
2018-06-15T12:57:45.275Z,11.25
2018-06-15T12:58:45.498Z,11.25
2018-06-15T12:59:45.282Z,16.88
2018-06-15T13:00:45.284Z,16.88
2018-06-15T13:01:45.506Z,16.88
2018-06-15T13:02:45.311Z,16.88
2018-06-15T13:03:45.308Z,16.88
2018-06-15T13:04:45.301Z,11.25
2018-06-15T13:05:45.521Z,11.25
2018-06-15T13:06:45.524Z,11.25